sensor_id;sensor_type;location;lat;lon;timestamp;pressure;altitude;pressure_sealevel;temperature;humidity
64388;BME280;50709;52.648;4.764;2023-12-04T00:01:27;101241.69;;;4.96;78.98
64388;BME280;50709;52.648;4.764;2023-12-04T00:10:36;101231.63;;;4.78;76.33
64388;BME280;50709;52.648;4.764;2023-12-04T00:13:02;101237.59;;;5.31;76.22
64388;BME280;50709;52.648;4.764;2023-12-04T00:15:27;101237.69;;;5.34;77.46
64388;BME280;50709;52.648;4.764;2023-12-04T00:17:52;101218.28;;;5.20;77.42
64388;BME280;50709;52.648;4.764;2023-12-04T00:20:18;101230.91;;;5.09;77.01
64388;BME280;50709;52.648;4.764;2023-12-04T00:22:43;101225.38;;;5.56;76.95
64388;BME280;50709;52.648;4.764;2023-12-04T00:25:08;101224.69;;;5.33;76.67
64388;BME280;50709;52.648;4.764;2023-12-04T00:27:34;101206.31;;;5.54;76.92
64388;BME280;50709;52.648;4.764;2023-12-04T00:29:59;101211.47;;;5.23;75.52
64388;BME280;50709;52.648;4.764;2023-12-04T00:32:25;101216.09;;;5.34;75.07
64388;BME280;50709;52.648;4.764;2023-12-04T00:34:50;101210.63;;;5.25;76.18
64388;BME280;50709;52.648;4.764;2023-12-04T00:37:15;101207.91;;;5.20;75.78
64388;BME280;50709;52.648;4.764;2023-12-04T00:39:41;101192.94;;;5.10;76.56
64388;BME280;50709;52.648;4.764;2023-12-04T00:42:06;101205.38;;;5.52;76.29
64388;BME280;50709;52.648;4.764;2023-12-04T00:44:31;101198.84;;;5.65;76.18
64388;BME280;50709;52.648;4.764;2023-12-04T00:46:57;101198.88;;;5.66;75.52
64388;BME280;50709;52.648;4.764;2023-12-04T00:49:23;101197.41;;;5.44;74.87
64388;BME280;50709;52.648;4.764;2023-12-04T00:51:48;101188.94;;;5.50;75.29
64388;BME280;50709;52.648;4.764;2023-12-04T00:54:13;101193.06;;;5.43;75.67
64388;BME280;50709;52.648;4.764;2023-12-04T00:56:39;101196.97;;;5.59;75.65
64388;BME280;50709;52.648;4.764;2023-12-04T12:39:02;100536.69;;;5.84;60.02
64388;BME280;50709;52.648;4.764;2023-12-04T12:41:29;100533.06;;;6.26;62.49
64388;BME280;50709;52.648;4.764;2023-12-04T12:43:55;100536.28;;;6.10;63.21
64388;BME280;50709;52.648;4.764;2023-12-04T12:46:21;100504.00;;;5.92;60.98
64388;BME280;50709;52.648;4.764;2023-12-04T12:48:47;100538.03;;;6.11;61.82
64388;BME280;50709;52.648;4.764;2023-12-04T12:51:13;100508.38;;;5.96;62.30
64388;BME280;50709;52.648;4.764;2023-12-04T12:53:38;100528.66;;;6.22;60.38
64388;BME280;50709;52.648;4.764;2023-12-04T12:56:04;100522.66;;;6.23;62.35
64388;BME280;50709;52.648;4.764;2023-12-04T12:58:30;100492.06;;;6.02;62.64
64388;BME280;50709;52.648;4.764;2023-12-04T13:00:56;100515.38;;;6.00;60.12
64388;BME280;50709;52.648;4.764;2023-12-04T13:03:21;100527.00;;;6.24;60.92
64388;BME280;50709;52.648;4.764;2023-12-04T13:05:47;100496.50;;;10.74;60.24
64388;BME280;50709;52.648;4.764;2023-12-04T13:08:13;100508.59;;;7.50;55.89
64388;BME280;50709;52.648;4.764;2023-12-04T13:10:40;100498.22;;;6.71;57.88
64388;BME280;50709;52.648;4.764;2023-12-04T13:13:13;100488.25;;;6.35;60.74
64388;BME280;50709;52.648;4.764;2023-12-04T13:15:38;100485.97;;;6.61;60.60
64388;BME280;50709;52.648;4.764;2023-12-04T13:18:04;100498.38;;;6.87;62.12
64388;BME280;50709;52.648;4.764;2023-12-04T13:20:29;100488.75;;;6.73;60.06
64388;BME280;50709;52.648;4.764;2023-12-04T13:22:54;100458.81;;;6.33;60.94
64388;BME280;50709;52.648;4.764;2023-12-04T13:25:20;100490.94;;;6.41;60.97
64388;BME280;50709;52.648;4.764;2023-12-04T13:27:46;100490.19;;;6.53;61.32
64388;BME280;50709;52.648;4.764;2023-12-04T13:30:11;100484.53;;;6.83;61.25
64388;BME280;50709;52.648;4.764;2023-12-04T13:32:39;100444.66;;;6.77;63.09
64388;BME280;50709;52.648;4.764;2023-12-04T13:35:05;100458.53;;;6.80;63.14
64388;BME280;50709;52.648;4.764;2023-12-04T13:37:34;100452.28;;;6.64;62.07
64388;BME280;50709;52.648;4.764;2023-12-04T13:40:02;100475.78;;;6.75;61.77
64388;BME280;50709;52.648;4.764;2023-12-04T13:42:37;100457.78;;;6.92;63.92
64388;BME280;50709;52.648;4.764;2023-12-04T13:45:22;100436.28;;;7.05;63.42
64388;BME280;50709;52.648;4.764;2023-12-04T13:47:48;100425.81;;;6.96;62.60
64388;BME280;50709;52.648;4.764;2023-12-04T13:50:14;100442.38;;;6.31;61.67
64388;BME280;50709;52.648;4.764;2023-12-04T13:52:40;100437.91;;;6.94;63.38
64388;BME280;50709;52.648;4.764;2023-12-04T13:55:08;100436.84;;;6.73;61.62
64388;BME280;50709;52.648;4.764;2023-12-04T13:57:45;100437.94;;;6.99;62.09
64388;BME280;50709;52.648;4.764;2023-12-04T14:00:25;100406.56;;;6.76;61.10
64388;BME280;50709;52.648;4.764;2023-12-04T14:02:51;100425.84;;;6.98;62.11
64388;BME280;50709;52.648;4.764;2023-12-04T14:05:19;100411.06;;;6.94;62.42
64388;BME280;50709;52.648;4.764;2023-12-04T14:07:47;100428.66;;;7.21;63.52
64388;BME280;50709;52.648;4.764;2023-12-04T14:10:12;100414.03;;;7.31;60.72
64388;BME280;50709;52.648;4.764;2023-12-04T14:12:40;100423.09;;;6.87;60.67
64388;BME280;50709;52.648;4.764;2023-12-04T14:15:06;100425.47;;;6.65;61.63
64388;BME280;50709;52.648;4.764;2023-12-04T14:17:31;100414.44;;;6.82;62.06
64388;BME280;50709;52.648;4.764;2023-12-04T14:19:57;100408.75;;;7.23;63.33
64388;BME280;50709;52.648;4.764;2023-12-04T14:22:22;100409.56;;;7.17;63.38
64388;BME280;50709;52.648;4.764;2023-12-04T14:24:47;100371.75;;;6.55;62.26
64388;BME280;50709;52.648;4.764;2023-12-04T14:27:13;100418.56;;;6.66;61.05
64388;BME280;50709;52.648;4.764;2023-12-04T14:29:39;100387.47;;;6.70;62.43
64388;BME280;50709;52.648;4.764;2023-12-04T14:32:08;100400.50;;;6.73;63.96
64388;BME280;50709;52.648;4.764;2023-12-04T14:34:33;100408.63;;;6.29;62.51
64388;BME280;50709;52.648;4.764;2023-12-04T14:36:59;100400.38;;;7.58;65.04
64388;BME280;50709;52.648;4.764;2023-12-04T14:39:24;100396.03;;;7.55;63.29
64388;BME280;50709;52.648;4.764;2023-12-04T14:41:50;100373.03;;;6.16;61.86
64388;BME280;50709;52.648;4.764;2023-12-04T14:44:16;100375.59;;;6.93;63.55
64388;BME280;50709;52.648;4.764;2023-12-04T14:46:41;100398.09;;;6.17;63.22
64388;BME280;50709;52.648;4.764;2023-12-04T14:49:07;100392.91;;;6.94;63.32
64388;BME280;50709;52.648;4.764;2023-12-04T14:51:32;100401.50;;;6.88;62.92
64388;BME280;50709;52.648;4.764;2023-12-04T14:53:58;100408.84;;;7.35;64.65
64388;BME280;50709;52.648;4.764;2023-12-04T14:56:52;100400.88;;;7.12;64.75
64388;BME280;50709;52.648;4.764;2023-12-04T14:59:33;100395.66;;;7.07;63.55
64388;BME280;50709;52.648;4.764;2023-12-04T15:02:01;100360.31;;;7.28;64.74
64388;BME280;50709;52.648;4.764;2023-12-04T15:04:27;100395.25;;;6.70;63.51
64388;BME280;50709;52.648;4.764;2023-12-04T15:07:11;100372.38;;;6.35;62.53
64388;BME280;50709;52.648;4.764;2023-12-04T15:09:45;100371.72;;;6.52;63.63
64388;BME280;50709;52.648;4.764;2023-12-04T15:12:14;100378.97;;;6.85;63.46
64388;BME280;50709;52.648;4.764;2023-12-04T15:15:04;100377.63;;;7.28;62.38
64388;BME280;50709;52.648;4.764;2023-12-04T15:17:35;100373.00;;;6.94;61.46
64388;BME280;50709;52.648;4.764;2023-12-04T15:20:13;100368.78;;;7.07;63.47
64388;BME280;50709;52.648;4.764;2023-12-04T15:22:58;100368.78;;;7.05;62.76
64388;BME280;50709;52.648;4.764;2023-12-04T15:25:23;100372.00;;;6.81;62.01
64388;BME280;50709;52.648;4.764;2023-12-04T15:27:52;100370.69;;;7.23;63.70
64388;BME280;50709;52.648;4.764;2023-12-04T15:30:17;100372.72;;;6.66;62.41
64388;BME280;50709;52.648;4.764;2023-12-04T15:32:42;100364.63;;;6.37;63.48
64388;BME280;50709;52.648;4.764;2023-12-04T15:35:11;100360.13;;;7.02;63.26
64388;BME280;50709;52.648;4.764;2023-12-04T15:37:37;100366.25;;;7.15;62.46
64388;BME280;50709;52.648;4.764;2023-12-04T15:40:03;100347.88;;;6.88;62.74
64388;BME280;50709;52.648;4.764;2023-12-04T15:42:29;100360.59;;;6.65;62.41
64388;BME280;50709;52.648;4.764;2023-12-04T15:44:56;100353.59;;;6.55;63.06
64388;BME280;50709;52.648;4.764;2023-12-04T15:47:21;100334.13;;;6.16;64.02
64388;BME280;50709;52.648;4.764;2023-12-04T15:49:47;100362.59;;;6.91;65.46
64388;BME280;50709;52.648;4.764;2023-12-04T15:52:13;100354.44;;;6.54;63.54
64388;BME280;50709;52.648;4.764;2023-12-04T15:54:38;100353.00;;;6.85;65.29
64388;BME280;50709;52.648;4.764;2023-12-04T15:57:04;100360.88;;;6.95;65.28
64388;BME280;50709;52.648;4.764;2023-12-04T15:59:31;100358.56;;;7.26;64.56
64388;BME280;50709;52.648;4.764;2023-12-04T16:01:56;100322.97;;;7.15;64.05
64388;BME280;50709;52.648;4.764;2023-12-04T16:04:21;100351.69;;;7.34;63.69
64388;BME280;50709;52.648;4.764;2023-12-04T16:06:47;100331.06;;;7.57;63.19
64388;BME280;50709;52.648;4.764;2023-12-04T16:09:14;100345.88;;;7.70;64.65
64388;BME280;50709;52.648;4.764;2023-12-04T16:11:40;100348.22;;;7.32;61.70
64388;BME280;50709;52.648;4.764;2023-12-04T16:14:05;100342.53;;;7.95;63.89
64388;BME280;50709;52.648;4.764;2023-12-04T16:16:31;100357.63;;;7.17;62.08
64388;BME280;50709;52.648;4.764;2023-12-04T16:18:56;100343.03;;;7.33;63.78
64388;BME280;50709;52.648;4.764;2023-12-04T16:21:22;100343.63;;;7.01;62.14
64388;BME280;50709;52.648;4.764;2023-12-04T16:23:47;100345.66;;;7.36;63.30
64388;BME280;50709;52.648;4.764;2023-12-04T16:26:13;100345.78;;;7.55;64.00
64388;BME280;50709;52.648;4.764;2023-12-04T16:28:38;100340.59;;;7.60;60.52
64388;BME280;50709;52.648;4.764;2023-12-04T16:31:04;100348.00;;;7.02;62.13
64388;BME280;50709;52.648;4.764;2023-12-04T16:33:30;100343.72;;;7.11;63.11
64388;BME280;50709;52.648;4.764;2023-12-04T16:35:56;100335.22;;;6.35;62.09
64388;BME280;50709;52.648;4.764;2023-12-04T16:38:22;100334.63;;;6.62;64.30
64388;BME280;50709;52.648;4.764;2023-12-04T16:40:47;100335.72;;;6.84;64.83
64388;BME280;50709;52.648;4.764;2023-12-04T16:43:13;100319.00;;;6.56;64.39
64388;BME280;50709;52.648;4.764;2023-12-04T16:45:39;100337.09;;;6.48;64.84
64388;BME280;50709;52.648;4.764;2023-12-04T16:48:04;100332.50;;;7.16;65.65
64388;BME280;50709;52.648;4.764;2023-12-04T16:50:30;100333.13;;;6.86;65.27
64388;BME280;50709;52.648;4.764;2023-12-04T16:52:56;100345.19;;;6.78;64.97
64388;BME280;50709;52.648;4.764;2023-12-04T16:55:22;100329.41;;;7.68;65.02
64388;BME280;50709;52.648;4.764;2023-12-04T16:57:47;100315.06;;;6.95;65.50
64388;BME280;50709;52.648;4.764;2023-12-04T17:00:13;100319.75;;;7.50;66.40
64388;BME280;50709;52.648;4.764;2023-12-04T17:02:39;100332.91;;;7.77;66.90
64388;BME280;50709;52.648;4.764;2023-12-04T17:05:05;100321.28;;;7.22;64.81
64388;BME280;50709;52.648;4.764;2023-12-04T17:07:30;100320.28;;;7.04;63.60
64388;BME280;50709;52.648;4.764;2023-12-04T17:09:56;100330.06;;;7.36;65.49
64388;BME280;50709;52.648;4.764;2023-12-04T17:12:21;100317.56;;;6.86;64.91
64388;BME280;50709;52.648;4.764;2023-12-04T17:14:46;100317.00;;;7.22;66.59
64388;BME280;50709;52.648;4.764;2023-12-04T17:17:12;100287.38;;;6.99;63.64
64388;BME280;50709;52.648;4.764;2023-12-04T17:19:37;100345.50;;;6.29;64.70
64388;BME280;50709;52.648;4.764;2023-12-04T17:22:02;100331.69;;;6.28;67.14
64388;BME280;50709;52.648;4.764;2023-12-04T17:24:28;100332.94;;;6.64;67.63
64388;BME280;50709;52.648;4.764;2023-12-04T17:26:53;100325.69;;;6.35;65.54
64388;BME280;50709;52.648;4.764;2023-12-04T17:29:19;100320.81;;;6.66;68.59
64388;BME280;50709;52.648;4.764;2023-12-04T17:31:44;100325.44;;;6.97;63.33
64388;BME280;50709;52.648;4.764;2023-12-04T17:34:10;100317.13;;;7.44;67.34
64388;BME280;50709;52.648;4.764;2023-12-04T17:36:35;100330.19;;;7.56;64.96
64388;BME280;50709;52.648;4.764;2023-12-04T17:39:01;100321.19;;;7.10;65.69
64388;BME280;50709;52.648;4.764;2023-12-04T17:41:28;100301.84;;;6.70;66.80
64388;BME280;50709;52.648;4.764;2023-12-04T17:43:54;100290.47;;;6.57;67.24
64388;BME280;50709;52.648;4.764;2023-12-04T17:46:19;100330.47;;;6.78;67.39
64388;BME280;50709;52.648;4.764;2023-12-04T17:48:44;100316.56;;;6.71;67.22
64388;BME280;50709;52.648;4.764;2023-12-04T17:51:15;100310.22;;;6.45;66.31
64388;BME280;50709;52.648;4.764;2023-12-04T17:53:41;100303.19;;;7.33;68.87
64388;BME280;50709;52.648;4.764;2023-12-04T17:56:08;100261.78;;;7.59;67.87
64388;BME280;50709;52.648;4.764;2023-12-04T17:58:33;100274.44;;;7.06;69.10
64388;BME280;50709;52.648;4.764;2023-12-04T18:01:00;100290.94;;;7.09;68.53
64388;BME280;50709;52.648;4.764;2023-12-04T18:03:25;100291.00;;;6.26;66.71
64388;BME280;50709;52.648;4.764;2023-12-04T18:05:50;100263.81;;;6.77;67.18
64388;BME280;50709;52.648;4.764;2023-12-04T18:08:16;100278.97;;;6.32;68.03
64388;BME280;50709;52.648;4.764;2023-12-04T18:10:41;100295.41;;;6.33;68.10
64388;BME280;50709;52.648;4.764;2023-12-04T18:13:07;100292.53;;;6.93;67.83
64388;BME280;50709;52.648;4.764;2023-12-04T18:15:32;100282.72;;;6.62;66.97
64388;BME280;50709;52.648;4.764;2023-12-04T18:17:57;100285.94;;;6.38;69.95
64388;BME280;50709;52.648;4.764;2023-12-04T18:20:23;100280.75;;;6.35;69.78
64388;BME280;50709;52.648;4.764;2023-12-04T18:22:48;100248.78;;;6.36;68.87
64388;BME280;50709;52.648;4.764;2023-12-04T18:25:17;100277.63;;;6.71;69.22
64388;BME280;50709;52.648;4.764;2023-12-04T18:27:43;100278.56;;;6.80;67.91
64388;BME280;50709;52.648;4.764;2023-12-04T18:30:09;100276.97;;;6.94;68.32
64388;BME280;50709;52.648;4.764;2023-12-04T18:32:35;100271.09;;;7.23;68.52
64388;BME280;50709;52.648;4.764;2023-12-04T18:35:01;100263.16;;;7.00;66.34
64388;BME280;50709;52.648;4.764;2023-12-04T18:40:05;100257.38;;;7.46;68.87
64388;BME280;50709;52.648;4.764;2023-12-04T18:42:32;100258.22;;;7.41;65.77
64388;BME280;50709;52.648;4.764;2023-12-04T18:44:58;100248.41;;;6.97;66.61
64388;BME280;50709;52.648;4.764;2023-12-04T18:47:25;100252.41;;;8.01;67.83
64388;BME280;50709;52.648;4.764;2023-12-04T18:49:51;100240.09;;;7.48;66.92
64388;BME280;50709;52.648;4.764;2023-12-04T18:52:19;100265.41;;;6.61;67.95
64388;BME280;50709;52.648;4.764;2023-12-04T18:54:45;100234.00;;;7.41;69.20
64388;BME280;50709;52.648;4.764;2023-12-04T18:57:11;100246.78;;;7.10;68.00
64388;BME280;50709;52.648;4.764;2023-12-04T18:59:37;100256.63;;;7.70;68.21
64388;BME280;50709;52.648;4.764;2023-12-04T19:02:03;100227.09;;;7.49;69.24
64388;BME280;50709;52.648;4.764;2023-12-04T19:04:28;100218.78;;;6.70;67.94
64388;BME280;50709;52.648;4.764;2023-12-04T19:06:54;100250.53;;;7.68;69.47
64388;BME280;50709;52.648;4.764;2023-12-04T19:09:19;100245.38;;;7.79;68.95
64388;BME280;50709;52.648;4.764;2023-12-04T19:11:44;100242.53;;;7.24;68.39
64388;BME280;50709;52.648;4.764;2023-12-04T19:14:10;100252.78;;;7.03;67.86
64388;BME280;50709;52.648;4.764;2023-12-04T19:16:35;100252.19;;;7.46;67.15
64388;BME280;50709;52.648;4.764;2023-12-04T19:19:00;100247.84;;;7.46;68.67
64388;BME280;50709;52.648;4.764;2023-12-04T19:21:26;100217.59;;;7.59;70.29
64388;BME280;50709;52.648;4.764;2023-12-04T19:23:51;100239.41;;;7.94;70.54
64388;BME280;50709;52.648;4.764;2023-12-04T19:26:16;100239.19;;;7.47;70.51
64388;BME280;50709;52.648;4.764;2023-12-04T19:28:42;100236.69;;;7.72;71.28
64388;BME280;50709;52.648;4.764;2023-12-04T19:31:09;100232.50;;;8.09;70.74
64388;BME280;50709;52.648;4.764;2023-12-04T19:33:35;100220.91;;;7.29;71.10
64388;BME280;50709;52.648;4.764;2023-12-04T19:36:03;100232.19;;;7.31;69.11
64388;BME280;50709;52.648;4.764;2023-12-04T19:38:30;100238.22;;;7.30;70.60
64388;BME280;50709;52.648;4.764;2023-12-04T19:40:55;100244.66;;;6.60;70.89
64388;BME280;50709;52.648;4.764;2023-12-04T19:43:21;100248.69;;;7.40;71.70
64388;BME280;50709;52.648;4.764;2023-12-04T19:45:46;100245.00;;;7.04;72.50
64388;BME280;50709;52.648;4.764;2023-12-04T19:48:12;100240.16;;;7.63;72.70
64388;BME280;50709;52.648;4.764;2023-12-04T19:50:37;100237.38;;;7.31;71.16
64388;BME280;50709;52.648;4.764;2023-12-04T19:53:04;100245.50;;;8.03;74.05
64388;BME280;50709;52.648;4.764;2023-12-04T19:55:29;100230.50;;;7.37;72.06
64388;BME280;50709;52.648;4.764;2023-12-04T19:57:54;100206.50;;;8.19;74.54
64388;BME280;50709;52.648;4.764;2023-12-04T20:00:20;100235.97;;;8.12;71.28
64388;BME280;50709;52.648;4.764;2023-12-04T20:02:45;100238.56;;;8.05;70.95
64388;BME280;50709;52.648;4.764;2023-12-04T20:05:12;100226.38;;;7.83;69.98
64388;BME280;50709;52.648;4.764;2023-12-04T20:07:39;100234.44;;;6.83;71.92
64388;BME280;50709;52.648;4.764;2023-12-04T20:10:05;100228.69;;;7.29;75.58
64388;BME280;50709;52.648;4.764;2023-12-04T20:12:31;100227.94;;;7.48;74.77
64388;BME280;50709;52.648;4.764;2023-12-04T20:14:56;100199.94;;;6.96;72.84
64388;BME280;50709;52.648;4.764;2023-12-04T20:17:23;100222.66;;;7.28;76.08
64388;BME280;50709;52.648;4.764;2023-12-04T20:19:49;100222.03;;;7.82;73.13
64388;BME280;50709;52.648;4.764;2023-12-04T20:22:14;100208.19;;;7.83;74.27
64388;BME280;50709;52.648;4.764;2023-12-04T20:24:42;100214.00;;;7.35;70.61
64388;BME280;50709;52.648;4.764;2023-12-04T20:27:10;100192.25;;;7.12;73.89
64388;BME280;50709;52.648;4.764;2023-12-04T20:29:36;100209.72;;;7.44;73.16
64388;BME280;50709;52.648;4.764;2023-12-04T20:32:01;100197.50;;;7.24;74.63
64388;BME280;50709;52.648;4.764;2023-12-04T20:34:26;100193.31;;;7.49;73.65
64388;BME280;50709;52.648;4.764;2023-12-04T20:36:52;100206.38;;;6.35;74.80
64388;BME280;50709;52.648;4.764;2023-12-04T20:39:21;100183.72;;;7.39;74.88
64388;BME280;50709;52.648;4.764;2023-12-04T20:41:46;100196.72;;;7.44;75.24
64388;BME280;50709;52.648;4.764;2023-12-04T20:44:11;100187.13;;;7.21;72.20
64388;BME280;50709;52.648;4.764;2023-12-04T20:46:37;100208.09;;;7.67;74.07
64388;BME280;50709;52.648;4.764;2023-12-04T20:49:02;100211.69;;;8.03;73.00
64388;BME280;50709;52.648;4.764;2023-12-04T20:51:28;100193.44;;;7.88;72.42
64388;BME280;50709;52.648;4.764;2023-12-04T20:53:55;100213.41;;;7.94;75.57
64388;BME280;50709;52.648;4.764;2023-12-04T20:56:20;100216.06;;;8.34;74.72
64388;BME280;50709;52.648;4.764;2023-12-04T20:58:47;100210.75;;;7.77;72.27
64388;BME280;50709;52.648;4.764;2023-12-04T21:01:15;100219.16;;;7.23;71.84
64388;BME280;50709;52.648;4.764;2023-12-04T21:03:42;100214.34;;;8.25;72.64
64388;BME280;50709;52.648;4.764;2023-12-04T21:06:08;100212.53;;;7.96;72.34
64388;BME280;50709;52.648;4.764;2023-12-04T21:08:33;100195.25;;;8.20;72.46
64388;BME280;50709;52.648;4.764;2023-12-04T21:10:58;100207.41;;;8.33;70.68
64388;BME280;50709;52.648;4.764;2023-12-04T21:13:24;100208.97;;;7.68;70.12
64388;BME280;50709;52.648;4.764;2023-12-04T21:15:50;100213.31;;;7.70;73.78
64388;BME280;50709;52.648;4.764;2023-12-04T21:18:15;100208.75;;;7.18;72.54
64388;BME280;50709;52.648;4.764;2023-12-04T21:20:40;100210.69;;;7.64;76.53
64388;BME280;50709;52.648;4.764;2023-12-04T21:23:06;100209.22;;;6.60;73.84
64388;BME280;50709;52.648;4.764;2023-12-04T21:25:35;100199.22;;;7.16;73.25
64388;BME280;50709;52.648;4.764;2023-12-04T21:28:00;100193.47;;;8.08;74.36
64388;BME280;50709;52.648;4.764;2023-12-04T21:30:26;100202.16;;;8.12;72.35
64388;BME280;50709;52.648;4.764;2023-12-04T21:32:51;100208.75;;;7.20;71.48
64388;BME280;50709;52.648;4.764;2023-12-04T21:35:17;100199.31;;;7.36;75.10
64388;BME280;50709;52.648;4.764;2023-12-04T21:37:42;100173.38;;;7.47;74.99
64388;BME280;50709;52.648;4.764;2023-12-04T21:40:08;100209.97;;;6.47;74.79
64388;BME280;50709;52.648;4.764;2023-12-04T21:42:34;100208.81;;;7.35;77.31
64388;BME280;50709;52.648;4.764;2023-12-04T21:45:00;100197.63;;;7.50;75.04
64388;BME280;50709;52.648;4.764;2023-12-04T21:47:25;100196.09;;;8.09;73.29
64388;BME280;50709;52.648;4.764;2023-12-04T21:49:51;100201.00;;;7.29;76.96
64388;BME280;50709;52.648;4.764;2023-12-04T21:52:16;100178.59;;;7.51;72.76
64388;BME280;50709;52.648;4.764;2023-12-04T21:54:43;100169.78;;;7.17;73.56
64388;BME280;50709;52.648;4.764;2023-12-04T21:57:08;100199.28;;;7.30;74.49
64388;BME280;50709;52.648;4.764;2023-12-04T21:59:34;100190.38;;;6.87;74.50
64388;BME280;50709;52.648;4.764;2023-12-04T22:01:59;100203.72;;;7.48;74.27
64388;BME280;50709;52.648;4.764;2023-12-04T22:04:24;100204.81;;;6.53;73.88
64388;BME280;50709;52.648;4.764;2023-12-04T22:06:50;100188.13;;;7.51;75.58
64388;BME280;50709;52.648;4.764;2023-12-04T22:09:15;100177.19;;;6.58;75.42
64388;BME280;50709;52.648;4.764;2023-12-04T22:11:41;100181.94;;;7.21;74.20
64388;BME280;50709;52.648;4.764;2023-12-04T22:14:06;100205.88;;;6.77;77.49
64388;BME280;50709;52.648;4.764;2023-12-04T22:16:31;100188.97;;;6.22;74.53
64388;BME280;50709;52.648;4.764;2023-12-04T22:18:57;100157.09;;;6.32;75.09
64388;BME280;50709;52.648;4.764;2023-12-04T22:21:22;100159.78;;;6.48;75.01
64388;BME280;50709;52.648;4.764;2023-12-04T22:23:47;100190.44;;;6.97;74.49
64388;BME280;50709;52.648;4.764;2023-12-04T22:26:13;100189.78;;;6.16;77.19
64388;BME280;50709;52.648;4.764;2023-12-04T22:28:38;100189.59;;;6.99;78.21
64388;BME280;50709;52.648;4.764;2023-12-04T22:31:04;100175.66;;;6.88;77.07
64388;BME280;50709;52.648;4.764;2023-12-04T22:33:30;100185.94;;;6.72;76.84
64388;BME280;50709;52.648;4.764;2023-12-04T22:35:57;100195.22;;;6.43;76.96
64388;BME280;50709;52.648;4.764;2023-12-04T22:38:22;100190.00;;;6.39;75.92
64388;BME280;50709;52.648;4.764;2023-12-04T22:40:48;100175.59;;;6.79;77.27
64388;BME280;50709;52.648;4.764;2023-12-04T22:43:13;100147.81;;;6.64;74.78
64388;BME280;50709;52.648;4.764;2023-12-04T22:45:39;100179.22;;;7.07;76.60
64388;BME280;50709;52.648;4.764;2023-12-04T22:48:05;100186.03;;;6.86;76.01
64388;BME280;50709;52.648;4.764;2023-12-04T22:50:30;100182.66;;;6.98;77.25
64388;BME280;50709;52.648;4.764;2023-12-04T22:52:55;100187.00;;;5.98;74.43
64388;BME280;50709;52.648;4.764;2023-12-04T22:55:21;100161.75;;;5.83;77.61
64388;BME280;50709;52.648;4.764;2023-12-04T22:57:46;100197.50;;;7.24;75.88
64388;BME280;50709;52.648;4.764;2023-12-04T23:00:12;100176.28;;;6.54;75.36
64388;BME280;50709;52.648;4.764;2023-12-04T23:02:38;100189.78;;;6.18;78.80
64388;BME280;50709;52.648;4.764;2023-12-04T23:05:04;100178.84;;;5.65;78.31
64388;BME280;50709;52.648;4.764;2023-12-04T23:07:30;100193.38;;;6.28;77.59
64388;BME280;50709;52.648;4.764;2023-12-04T23:09:55;100165.06;;;6.59;77.54
64388;BME280;50709;52.648;4.764;2023-12-04T23:12:21;100170.34;;;5.77;76.84
64388;BME280;50709;52.648;4.764;2023-12-04T23:14:46;100199.91;;;5.96;78.68
64388;BME280;50709;52.648;4.764;2023-12-04T23:17:11;100192.97;;;5.94;79.90
64388;BME280;50709;52.648;4.764;2023-12-04T23:19:37;100178.91;;;6.56;77.21
64388;BME280;50709;52.648;4.764;2023-12-04T23:22:02;100198.59;;;6.32;75.69
64388;BME280;50709;52.648;4.764;2023-12-04T23:24:28;100191.25;;;5.20;77.69
64388;BME280;50709;52.648;4.764;2023-12-04T23:26:53;100175.56;;;5.80;77.33
64388;BME280;50709;52.648;4.764;2023-12-04T23:29:18;100188.38;;;6.51;78.48
64388;BME280;50709;52.648;4.764;2023-12-04T23:31:44;100179.22;;;7.02;78.55
64388;BME280;50709;52.648;4.764;2023-12-04T23:34:10;100183.28;;;6.65;78.08
64388;BME280;50709;52.648;4.764;2023-12-04T23:36:35;100183.41;;;5.85;75.92
64388;BME280;50709;52.648;4.764;2023-12-04T23:39:01;100187.19;;;6.18;77.22
64388;BME280;50709;52.648;4.764;2023-12-04T23:41:27;100178.94;;;6.59;79.03
64388;BME280;50709;52.648;4.764;2023-12-04T23:43:53;100175.66;;;6.86;77.12
64388;BME280;50709;52.648;4.764;2023-12-04T23:46:18;100182.81;;;6.11;77.58
64388;BME280;50709;52.648;4.764;2023-12-04T23:48:43;100171.28;;;6.78;79.27
64388;BME280;50709;52.648;4.764;2023-12-04T23:51:09;100174.03;;;7.02;77.45
64388;BME280;50709;52.648;4.764;2023-12-04T23:53:34;100177.03;;;6.39;79.13
64388;BME280;50709;52.648;4.764;2023-12-04T23:56:00;100184.94;;;6.52;77.75
64388;BME280;50709;52.648;4.764;2023-12-04T23:58:25;100181.06;;;5.34;78.50
